Time,TemperatureF,DewpointF,PressureIn,WindDirection,WindDirectionDegrees,WindSpeedMPH,WindSpeedGustMPH,Humidity,HourlyPrecipIn,Conditions,Clouds,dailyrainin,SoftwareType,DateUTC
2013-08-21 00:14:00,70.0,61.0,30.08,WSW,248,2.0,8.0,72,0.00,,,0.00,,2013-08-21 04:14:00,
2013-08-21 00:44:00,71.0,62.0,30.15,WSW,248,3.0,7.0,73,0.00,,,0.00,,2013-08-21 04:44:00,
2013-08-21 03:22:00,69.0,60.0,30.09,West,263,1.0,5.0,74,0.00,,,0.00,,2013-08-21 07:22:00,
2013-08-21 03:42:00,68.0,61.0,30.09,West,259,0.0,1.0,77,0.00,,,0.00,,2013-08-21 07:42:00,
2013-08-21 03:53:00,68.0,61.0,30.16,SW,230,1.0,3.0,78,0.00,,,0.00,,2013-08-21 07:53:00,
2013-08-21 04:12:00,67.0,60.0,30.16,WSW,256,1.0,3.0,78,0.00,,,0.00,,2013-08-21 08:12:00,
2013-08-21 04:22:00,68.0,61.0,30.16,West,263,0.0,2.0,77,0.00,,,0.00,,2013-08-21 08:22:00,
2013-08-21 04:43:00,68.0,60.0,30.16,West,275,0.0,3.0,76,0.00,,,0.00,,2013-08-21 08:43:00,
2013-08-21 04:53:00,66.0,59.0,30.16,West,259,0.0,2.0,79,0.00,,,0.00,,2013-08-21 08:53:00,
2013-08-21 05:11:00,65.0,59.0,30.16,WSW,253,1.0,2.0,82,0.00,,,0.00,,2013-08-21 09:11:00,
2013-08-21 05:22:00,66.0,60.0,30.16,WSW,253,1.0,2.0,80,0.00,,,0.00,,2013-08-21 09:22:00,
2013-08-21 05:43:00,65.0,59.0,30.16,West,275,0.0,2.0,80,0.00,,,0.00,,2013-08-21 09:43:00,
2013-08-21 05:54:00,65.0,59.0,30.16,West,272,0.0,1.0,82,0.00,,,0.00,,2013-08-21 09:54:00,
2013-08-21 06:13:00,65.0,58.0,30.16,WSW,237,0.0,2.0,79,0.00,,,0.00,,2013-08-21 10:13:00,
2013-08-21 06:23:00,65.0,59.0,30.16,WSW,244,0.0,3.0,82,0.00,,,0.00,,2013-08-21 10:23:00,
2013-08-21 06:43:00,65.0,59.0,30.17,WSW,256,0.0,4.0,82,0.00,,,0.00,,2013-08-21 10:43:00,
2013-08-21 06:53:00,64.0,59.0,30.11,WSW,252,0.0,4.0,83,0.00,,,0.00,,2013-08-21 10:53:00,
2013-08-21 07:12:00,65.0,60.0,30.18,SW,225,1.0,5.0,84,0.00,,,0.00,,2013-08-21 11:12:00,
2013-08-21 07:22:00,65.0,60.0,30.17,West,274,1.0,3.0,84,0.00,,,0.00,,2013-08-21 11:22:00,
2013-08-21 07:42:00,65.0,60.0,30.18,NW,316,1.0,2.0,84,0.00,,,0.00,,2013-08-21 11:42:00,
2013-08-21 07:53:00,66.0,61.0,30.19,West,262,0.0,4.0,83,0.00,,,0.00,,2013-08-21 11:53:00,
2013-08-21 08:12:00,66.0,61.0,30.19,WNW,292,1.0,4.0,85,0.00,,,0.00,,2013-08-21 12:12:00,
2013-08-21 09:52:00,72.0,63.0,30.12,SW,221,2.0,7.0,74,0.00,,,0.00,,2013-08-21 13:52:00,
2013-08-21 10:12:00,73.0,63.0,30.19,SSW,205,3.0,6.0,72,0.00,,,0.00,,2013-08-21 14:12:00,
2013-08-21 10:21:00,73.0,63.0,30.19,West,277,2.0,7.0,71,0.00,,,0.00,,2013-08-21 14:21:00,
2013-08-21 10:42:00,74.0,65.0,30.19,West,276,2.0,7.0,73,0.00,,,0.00,,2013-08-21 14:42:00,
2013-08-21 10:52:00,74.0,64.0,30.19,WNW,286,2.0,5.0,71,0.00,,,0.00,,2013-08-21 14:52:00,
2013-08-21 11:11:00,75.0,65.0,30.19,NNW,327,2.0,5.0,71,0.00,,,0.00,,2013-08-21 15:11:00,
2013-08-21 11:22:00,75.0,65.0,30.18,WSW,256,2.0,7.0,70,0.00,,,0.00,,2013-08-21 15:22:00,
2013-08-21 11:43:00,76.0,65.0,30.18,WSW,242,3.0,8.0,68,0.00,,,0.00,,2013-08-21 15:43:00,
2013-08-21 11:55:00,76.0,65.0,30.18,NNE,12,3.0,6.0,68,0.00,,,0.00,,2013-08-21 15:55:00,
2013-08-21 12:13:00,77.0,66.0,30.18,NNW,346,2.0,7.0,69,0.00,,,0.00,,2013-08-21 16:13:00,
2013-08-21 12:24:00,77.0,64.0,30.17,SW,231,3.0,10.0,64,0.00,,,0.00,,2013-08-21 16:24:00,
2013-08-21 12:43:00,78.0,66.0,30.17,NW,323,2.0,5.0,67,0.00,,,0.00,,2013-08-21 16:43:00,
2013-08-21 12:53:00,78.0,66.0,30.16,WNW,282,2.0,7.0,67,0.00,,,0.00,,2013-08-21 16:53:00,
2013-08-21 13:13:00,78.0,65.0,30.09,WSW,253,1.0,6.0,65,0.00,,,0.00,,2013-08-21 17:13:00,
2013-08-21 13:23:00,79.0,65.0,30.16,WNW,282,2.0,8.0,62,0.00,,,0.00,,2013-08-21 17:23:00,
2013-08-21 13:43:00,79.0,64.0,30.16,NW,307,3.0,7.0,60,0.00,,,0.00,,2013-08-21 17:43:00,
2013-08-21 13:53:00,80.0,66.0,30.16,North,353,3.0,5.0,62,0.00,,,0.00,,2013-08-21 17:53:00,
2013-08-21 14:12:00,80.0,66.0,30.15,SW,222,1.0,4.0,62,0.00,,,0.00,,2013-08-21 18:12:00,
2013-08-21 14:22:00,81.0,66.0,30.15,WNW,290,2.0,6.0,61,0.00,,,0.00,,2013-08-21 18:22:00,
2013-08-21 14:42:00,82.0,67.0,30.15,NW,313,3.0,7.0,60,0.00,,,0.00,,2013-08-21 18:42:00,
2013-08-21 14:52:00,81.0,68.0,30.14,West,272,3.0,6.0,64,0.00,,,0.00,,2013-08-21 18:52:00,
2013-08-21 15:12:00,81.0,68.0,30.13,North,2,1.0,6.0,65,0.00,,,0.00,,2013-08-21 19:12:00,
2013-08-21 15:22:00,81.0,66.0,30.13,West,277,4.0,9.0,60,0.00,,,0.00,,2013-08-21 19:22:00,
2013-08-21 15:52:00,82.0,67.0,30.12,NW,308,3.0,8.0,60,0.00,,,0.00,,2013-08-21 19:52:00,
2013-08-21 16:11:00,81.0,65.0,30.11,West,277,2.0,6.0,58,0.00,,,0.00,,2013-08-21 20:11:00,
2013-08-21 16:22:00,82.0,66.0,30.04,NW,326,1.0,4.0,58,0.00,,,0.00,,2013-08-21 20:22:00,
2013-08-21 16:52:00,83.0,66.0,30.10,West,272,3.0,7.0,56,0.00,,,0.00,,2013-08-21 20:52:00,
2013-08-21 17:12:00,82.0,65.0,30.10,WNW,290,1.0,4.0,57,0.00,,,0.00,,2013-08-21 21:12:00,
2013-08-21 17:22:00,82.0,66.0,30.10,NNW,346,3.0,6.0,58,0.00,,,0.00,,2013-08-21 21:22:00,
2013-08-21 17:55:00,82.0,66.0,30.10,WNW,294,1.0,5.0,59,0.00,,,0.00,,2013-08-21 21:55:00,
2013-08-21 18:14:00,82.0,65.0,30.10,WNW,283,2.0,5.0,57,0.00,,,0.00,,2013-08-21 22:14:00,
2013-08-21 18:24:00,81.0,64.0,30.10,West,273,3.0,4.0,56,0.00,,,0.00,,2013-08-21 22:24:00,
2013-08-21 18:53:00,81.0,64.0,30.08,West,279,1.0,6.0,57,0.00,,,0.00,,2013-08-21 22:53:00,
2013-08-21 19:13:00,80.0,64.0,30.09,West,266,1.0,5.0,59,0.00,,,0.00,,2013-08-21 23:13:00,
2013-08-21 19:22:00,79.0,64.0,30.09,WSW,246,2.0,4.0,60,0.00,,,0.00,,2013-08-21 23:22:00,
2013-08-21 19:53:00,76.0,62.0,30.08,WSW,247,2.0,5.0,62,0.00,,,0.00,,2013-08-21 23:53:00,
2013-08-21 20:12:00,75.0,62.0,30.08,West,259,1.0,7.0,64,0.00,,,0.00,,2013-08-22 00:12:00,
2013-08-21 20:22:00,75.0,62.0,30.08,WSW,239,0.0,6.0,65,0.00,,,0.00,,2013-08-22 00:22:00,
2013-08-21 20:42:00,74.0,62.0,30.09,West,267,4.0,7.0,66,0.00,,,0.00,,2013-08-22 00:42:00,
2013-08-21 20:52:00,74.0,62.0,30.09,WSW,249,2.0,8.0,66,0.00,,,0.00,,2013-08-22 00:52:00,
2013-08-21 21:12:00,74.0,62.0,30.09,WSW,254,4.0,10.0,66,0.00,,,0.00,,2013-08-22 01:12:00,
2013-08-21 21:22:00,74.0,62.0,30.09,WSW,258,4.0,11.0,66,0.00,,,0.00,,2013-08-22 01:22:00,
2013-08-21 21:42:00,74.0,62.0,30.09,South,187,3.0,10.0,66,0.00,,,0.00,,2013-08-22 01:42:00,
2013-08-21 21:52:00,74.0,61.0,30.08,SE,144,5.0,12.0,64,0.00,,,0.00,,2013-08-22 01:52:00,
2013-08-21 22:12:00,74.0,61.0,30.08,SSW,212,4.0,11.0,64,0.00,,,0.00,,2013-08-22 02:12:00,
2013-08-21 22:22:00,74.0,61.0,30.07,WSW,256,4.0,10.0,65,0.00,,,0.00,,2013-08-22 02:22:00,
2013-08-21 23:12:00,74.0,62.0,30.07,WSW,248,6.0,12.0,67,0.00,,,0.00,,2013-08-22 03:12:00,
2013-08-21 23:22:00,74.0,63.0,30.07,WSW,249,5.0,10.0,68,0.00,,,0.00,,2013-08-22 03:22:00,
2013-08-21 23:45:00,73.0,62.0,30.07,WSW,253,5.0,12.0,69,0.00,,,0.00,,2013-08-22 03:45:00,
2013-08-21 23:54:00,73.0,63.0,30.07,SW,228,5.0,11.0,70,0.00,,,0.00,,2013-08-22 03:54:00,